sensor_id;sensor_type;location;lat;lon;timestamp;pressure;altitude;pressure_sealevel;temperature;humidity
17615;BME280;8926;49.720;6.576;2023-03-26T00:00:07;99150.47;;;9.26;80.51
17615;BME280;8926;49.720;6.576;2023-03-26T00:02:33;99140.03;;;9.26;81.41
17615;BME280;8926;49.720;6.576;2023-03-26T00:04:59;99139.03;;;9.29;81.12
17615;BME280;8926;49.720;6.576;2023-03-26T00:07:24;99139.66;;;9.32;80.76
17615;BME280;8926;49.720;6.576;2023-03-26T00:09:52;99143.22;;;9.31;80.49
17615;BME280;8926;49.720;6.576;2023-03-26T00:12:17;99135.47;;;9.30;81.07
17615;BME280;8926;49.720;6.576;2023-03-26T00:14:42;99131.19;;;9.29;80.63
17615;BME280;8926;49.720;6.576;2023-03-26T00:17:09;99136.50;;;9.27;81.01
17615;BME280;8926;49.720;6.576;2023-03-26T00:19:34;99129.63;;;9.26;81.27
17615;BME280;8926;49.720;6.576;2023-03-26T00:21:59;99132.50;;;9.22;81.08
17615;BME280;8926;49.720;6.576;2023-03-26T00:24:25;99129.97;;;9.20;81.73
17615;BME280;8926;49.720;6.576;2023-03-26T00:26:54;99127.47;;;9.18;81.85
17615;BME280;8926;49.720;6.576;2023-03-26T00:29:19;99124.59;;;9.23;81.59
17615;BME280;8926;49.720;6.576;2023-03-26T00:31:47;99126.06;;;9.27;81.24
17615;BME280;8926;49.720;6.576;2023-03-26T00:34:13;99117.16;;;9.31;81.16
17615;BME280;8926;49.720;6.576;2023-03-26T00:36:39;99115.06;;;9.36;80.67
17615;BME280;8926;49.720;6.576;2023-03-26T00:39:06;99102.78;;;9.38;81.29
17615;BME280;8926;49.720;6.576;2023-03-26T00:41:32;99120.94;;;9.40;81.50
17615;BME280;8926;49.720;6.576;2023-03-26T00:44:00;99114.03;;;9.39;81.22
17615;BME280;8926;49.720;6.576;2023-03-26T00:46:28;99111.53;;;9.37;81.92
17615;BME280;8926;49.720;6.576;2023-03-26T00:48:53;99104.03;;;9.33;81.21
17615;BME280;8926;49.720;6.576;2023-03-26T00:51:22;99099.81;;;9.30;82.62
17615;BME280;8926;49.720;6.576;2023-03-26T00:53:49;99093.78;;;9.30;83.10
17615;BME280;8926;49.720;6.576;2023-03-26T00:56:15;99091.44;;;9.25;82.07
17615;BME280;8926;49.720;6.576;2023-03-26T00:58:40;99087.06;;;9.26;82.76
17615;BME280;8926;49.720;6.576;2023-03-26T01:01:12;99087.72;;;9.29;83.08
17615;BME280;8926;49.720;6.576;2023-03-26T01:03:38;99077.94;;;9.33;81.63
17615;BME280;8926;49.720;6.576;2023-03-26T01:06:06;99073.75;;;9.30;82.69
17615;BME280;8926;49.720;6.576;2023-03-26T01:08:43;99070.22;;;9.31;81.93
17615;BME280;8926;49.720;6.576;2023-03-26T01:11:16;99058.13;;;9.30;82.42
17615;BME280;8926;49.720;6.576;2023-03-26T01:13:47;99047.59;;;9.32;81.42
17615;BME280;8926;49.720;6.576;2023-03-26T01:16:18;99051.88;;;9.33;82.11
17615;BME280;8926;49.720;6.576;2023-03-26T01:18:46;99040.44;;;9.35;81.67
17615;BME280;8926;49.720;6.576;2023-03-26T01:21:12;99045.44;;;9.38;81.49
17615;BME280;8926;49.720;6.576;2023-03-26T01:23:48;99040.84;;;9.42;80.82
17615;BME280;8926;49.720;6.576;2023-03-26T01:27:03;99031.09;;;9.45;80.38
17615;BME280;8926;49.720;6.576;2023-03-26T01:29:24;99030.06;;;9.48;80.62
17615;BME280;8926;49.720;6.576;2023-03-26T01:34:54;99020.28;;;9.51;79.88
17615;BME280;8926;49.720;6.576;2023-03-26T01:40:15;99008.16;;;9.50;80.26
17615;BME280;8926;49.720;6.576;2023-03-26T01:42:51;99002.94;;;9.50;80.17
17615;BME280;8926;49.720;6.576;2023-03-26T01:45:25;99000.25;;;9.52;80.04
17615;BME280;8926;49.720;6.576;2023-03-26T01:47:53;98996.81;;;9.51;79.62
17615;BME280;8926;49.720;6.576;2023-03-26T01:50:18;98988.78;;;9.55;79.84
17615;BME280;8926;49.720;6.576;2023-03-26T01:52:44;98983.56;;;9.55;79.39
17615;BME280;8926;49.720;6.576;2023-03-26T01:55:10;98977.72;;;9.51;80.36
17615;BME280;8926;49.720;6.576;2023-03-26T01:57:58;98978.34;;;9.55;79.63
17615;BME280;8926;49.720;6.576;2023-03-26T02:00:31;98969.59;;;9.56;79.31
17615;BME280;8926;49.720;6.576;2023-03-26T02:03:24;98974.81;;;9.56;79.36
17615;BME280;8926;49.720;6.576;2023-03-26T02:06:06;98961.78;;;9.56;79.56
17615;BME280;8926;49.720;6.576;2023-03-26T02:09:05;98961.03;;;9.53;80.22
17615;BME280;8926;49.720;6.576;2023-03-26T02:11:29;98958.34;;;9.55;79.67
17615;BME280;8926;49.720;6.576;2023-03-26T02:13:55;98954.88;;;9.55;79.75
17615;BME280;8926;49.720;6.576;2023-03-26T02:16:20;98950.41;;;9.57;79.31
17615;BME280;8926;49.720;6.576;2023-03-26T02:18:47;98948.53;;;9.59;79.85
17615;BME280;8926;49.720;6.576;2023-03-26T02:21:20;98941.66;;;9.58;80.01
17615;BME280;8926;49.720;6.576;2023-03-26T02:23:48;98940.81;;;9.57;79.76
17615;BME280;8926;49.720;6.576;2023-03-26T02:26:17;98931.22;;;9.58;79.51
17615;BME280;8926;49.720;6.576;2023-03-26T02:28:43;98918.09;;;9.59;79.73
17615;BME280;8926;49.720;6.576;2023-03-26T02:31:08;98922.47;;;9.59;79.73
17615;BME280;8926;49.720;6.576;2023-03-26T02:33:35;98915.59;;;9.58;79.62
17615;BME280;8926;49.720;6.576;2023-03-26T02:36:02;98907.03;;;9.56;79.89
17615;BME280;8926;49.720;6.576;2023-03-26T02:38:31;98898.47;;;9.53;80.34
17615;BME280;8926;49.720;6.576;2023-03-26T02:41:00;98888.25;;;9.50;80.70
17615;BME280;8926;49.720;6.576;2023-03-26T02:43:26;98890.31;;;9.45;81.40
17615;BME280;8926;49.720;6.576;2023-03-26T02:45:52;98871.53;;;9.40;82.16
17615;BME280;8926;49.720;6.576;2023-03-26T02:48:17;98875.06;;;9.39;81.68
17615;BME280;8926;49.720;6.576;2023-03-26T02:50:43;98879.25;;;9.42;81.78
17615;BME280;8926;49.720;6.576;2023-03-26T02:53:08;98867.97;;;9.41;82.28
17615;BME280;8926;49.720;6.576;2023-03-26T02:55:34;98862.75;;;9.41;81.80
17615;BME280;8926;49.720;6.576;2023-03-26T02:57:59;98855.69;;;9.43;82.23
17615;BME280;8926;49.720;6.576;2023-03-26T03:00:25;98853.59;;;9.48;81.69
17615;BME280;8926;49.720;6.576;2023-03-26T03:02:50;98853.22;;;9.55;81.14
17615;BME280;8926;49.720;6.576;2023-03-26T03:05:17;98850.59;;;9.55;81.12
17615;BME280;8926;49.720;6.576;2023-03-26T03:07:43;98841.09;;;9.53;80.74
17615;BME280;8926;49.720;6.576;2023-03-26T03:10:11;98832.56;;;9.51;81.91
17615;BME280;8926;49.720;6.576;2023-03-26T03:12:38;98829.00;;;9.52;81.54
17615;BME280;8926;49.720;6.576;2023-03-26T03:15:04;98809.63;;;9.57;81.73
17615;BME280;8926;49.720;6.576;2023-03-26T03:17:29;98812.13;;;9.58;80.63
17615;BME280;8926;49.720;6.576;2023-03-26T03:19:54;98798.97;;;9.60;81.20
17615;BME280;8926;49.720;6.576;2023-03-26T03:22:20;98797.31;;;9.59;80.90
17615;BME280;8926;49.720;6.576;2023-03-26T03:24:45;98806.06;;;9.58;81.26
17615;BME280;8926;49.720;6.576;2023-03-26T03:27:11;98802.53;;;9.59;80.52
17615;BME280;8926;49.720;6.576;2023-03-26T03:29:37;98798.97;;;9.60;80.69
17615;BME280;8926;49.720;6.576;2023-03-26T03:32:02;98792.84;;;9.61;80.63
17615;BME280;8926;49.720;6.576;2023-03-26T03:34:28;98786.78;;;9.60;81.09
17615;BME280;8926;49.720;6.576;2023-03-26T03:36:53;98786.88;;;9.59;80.90
17615;BME280;8926;49.720;6.576;2023-03-26T03:39:18;98783.53;;;9.57;80.84
17615;BME280;8926;49.720;6.576;2023-03-26T03:41:43;98772.06;;;9.59;80.39
17615;BME280;8926;49.720;6.576;2023-03-26T03:44:09;98757.25;;;9.60;80.54
17615;BME280;8926;49.720;6.576;2023-03-26T03:46:34;98757.03;;;9.63;80.56
17615;BME280;8926;49.720;6.576;2023-03-26T03:49:00;98746.59;;;9.63;80.06
17615;BME280;8926;49.720;6.576;2023-03-26T03:51:25;98745.16;;;9.59;80.71
17615;BME280;8926;49.720;6.576;2023-03-26T03:53:50;98739.94;;;9.59;81.11
17615;BME280;8926;49.720;6.576;2023-03-26T03:56:16;98740.16;;;9.56;81.66
17615;BME280;8926;49.720;6.576;2023-03-26T03:58:44;98726.41;;;9.53;81.79
17615;BME280;8926;49.720;6.576;2023-03-26T04:01:11;98729.72;;;9.56;81.19
17615;BME280;8926;49.720;6.576;2023-03-26T04:03:38;98724.50;;;9.56;81.64
17615;BME280;8926;49.720;6.576;2023-03-26T04:06:06;98715.75;;;9.57;81.61
17615;BME280;8926;49.720;6.576;2023-03-26T04:08:32;98715.97;;;9.53;82.34
17615;BME280;8926;49.720;6.576;2023-03-26T04:10:58;98718.03;;;9.48;82.35
17615;BME280;8926;49.720;6.576;2023-03-26T04:13:23;98710.44;;;9.45;82.65
17615;BME280;8926;49.720;6.576;2023-03-26T04:15:49;98708.56;;;9.47;82.59
17615;BME280;8926;49.720;6.576;2023-03-26T04:18:14;98703.34;;;9.47;83.25
17615;BME280;8926;49.720;6.576;2023-03-26T04:20:41;98706.78;;;9.48;83.76
17615;BME280;8926;49.720;6.576;2023-03-26T04:23:12;98697.28;;;9.47;82.71
17615;BME280;8926;49.720;6.576;2023-03-26T04:25:40;98695.53;;;9.47;82.53
17615;BME280;8926;49.720;6.576;2023-03-26T04:28:06;98691.97;;;9.48;82.99
17615;BME280;8926;49.720;6.576;2023-03-26T04:30:33;98686.75;;;9.48;83.00
17615;BME280;8926;49.720;6.576;2023-03-26T04:33:03;98686.56;;;9.51;82.53
17615;BME280;8926;49.720;6.576;2023-03-26T04:35:31;98682.19;;;9.52;81.76
17615;BME280;8926;49.720;6.576;2023-03-26T04:38:01;98672.78;;;9.49;82.50
17615;BME280;8926;49.720;6.576;2023-03-26T04:40:31;98667.56;;;9.49;82.88
17615;BME280;8926;49.720;6.576;2023-03-26T04:43:01;98665.91;;;9.48;81.94
17615;BME280;8926;49.720;6.576;2023-03-26T04:45:28;98671.13;;;9.48;81.91
17615;BME280;8926;49.720;6.576;2023-03-26T04:47:57;98656.94;;;9.52;81.95
17615;BME280;8926;49.720;6.576;2023-03-26T04:50:23;98648.38;;;9.50;82.49
17615;BME280;8926;49.720;6.576;2023-03-26T04:52:49;98654.44;;;9.51;81.64
17615;BME280;8926;49.720;6.576;2023-03-26T04:55:23;98643.19;;;9.50;81.36
17615;BME280;8926;49.720;6.576;2023-03-26T04:57:52;98637.97;;;9.50;81.95
17615;BME280;8926;49.720;6.576;2023-03-26T05:00:20;98624.94;;;9.50;82.53
17615;BME280;8926;49.720;6.576;2023-03-26T05:02:46;98622.31;;;9.50;82.79
17615;BME280;8926;49.720;6.576;2023-03-26T05:05:15;98615.44;;;9.49;82.48
17615;BME280;8926;49.720;6.576;2023-03-26T05:07:40;98606.69;;;9.50;83.13
17615;BME280;8926;49.720;6.576;2023-03-26T05:10:07;98612.09;;;9.47;83.02
17615;BME280;8926;49.720;6.576;2023-03-26T05:12:33;98603.34;;;9.48;83.45
17615;BME280;8926;49.720;6.576;2023-03-26T05:14:58;98604.19;;;9.49;82.68
17615;BME280;8926;49.720;6.576;2023-03-26T05:17:24;98598.97;;;9.49;82.47
17615;BME280;8926;49.720;6.576;2023-03-26T05:19:50;98598.84;;;9.50;83.43
17615;BME280;8926;49.720;6.576;2023-03-26T05:22:17;98592.69;;;9.51;83.38
17615;BME280;8926;49.720;6.576;2023-03-26T05:24:42;98585.81;;;9.50;83.50
17615;BME280;8926;49.720;6.576;2023-03-26T05:27:07;98585.81;;;9.50;84.08
17615;BME280;8926;49.720;6.576;2023-03-26T05:29:37;98576.34;;;9.49;83.69
17615;BME280;8926;49.720;6.576;2023-03-26T05:32:02;98573.50;;;9.52;82.85
17615;BME280;8926;49.720;6.576;2023-03-26T05:34:28;98565.19;;;9.47;82.80
17615;BME280;8926;49.720;6.576;2023-03-26T05:36:53;98569.38;;;9.37;83.05
17615;BME280;8926;49.720;6.576;2023-03-26T05:39:18;98561.38;;;9.28;84.53
17615;BME280;8926;49.720;6.576;2023-03-26T05:41:46;98565.25;;;9.22;85.50
17615;BME280;8926;49.720;6.576;2023-03-26T05:44:11;98555.75;;;9.21;85.75
17615;BME280;8926;49.720;6.576;2023-03-26T05:46:37;98543.47;;;9.23;86.71
17615;BME280;8926;49.720;6.576;2023-03-26T05:49:03;98538.25;;;9.23;87.04
17615;BME280;8926;49.720;6.576;2023-03-26T05:51:28;98533.75;;;9.25;87.42
17615;BME280;8926;49.720;6.576;2023-03-26T05:53:53;98526.69;;;9.27;86.50
17615;BME280;8926;49.720;6.576;2023-03-26T05:56:18;98519.59;;;9.29;87.23
17615;BME280;8926;49.720;6.576;2023-03-26T05:58:44;98510.00;;;9.30;86.20
17615;BME280;8926;49.720;6.576;2023-03-26T06:01:11;98511.03;;;9.27;85.52
17615;BME280;8926;49.720;6.576;2023-03-26T06:03:42;98491.66;;;9.31;86.01
17615;BME280;8926;49.720;6.576;2023-03-26T06:06:10;98496.63;;;9.34;85.85
17615;BME280;8926;49.720;6.576;2023-03-26T06:08:41;98484.31;;;9.36;86.06
17615;BME280;8926;49.720;6.576;2023-03-26T06:11:06;98484.31;;;9.36;85.91
17615;BME280;8926;49.720;6.576;2023-03-26T06:13:32;98483.34;;;9.37;85.84
17615;BME280;8926;49.720;6.576;2023-03-26T06:15:57;98479.09;;;9.36;85.97
17615;BME280;8926;49.720;6.576;2023-03-26T06:18:24;98472.00;;;9.38;85.50
17615;BME280;8926;49.720;6.576;2023-03-26T06:20:50;98461.34;;;9.41;85.37
17615;BME280;8926;49.720;6.576;2023-03-26T06:23:16;98451.44;;;9.46;85.29
17615;BME280;8926;49.720;6.576;2023-03-26T06:25:42;98448.59;;;9.49;85.92
17615;BME280;8926;49.720;6.576;2023-03-26T06:28:10;98440.66;;;9.51;85.76
17615;BME280;8926;49.720;6.576;2023-03-26T06:30:35;98431.47;;;9.58;85.51
17615;BME280;8926;49.720;6.576;2023-03-26T06:33:00;98427.06;;;9.59;85.03
17615;BME280;8926;49.720;6.576;2023-03-26T06:35:26;98418.31;;;9.60;84.73
17615;BME280;8926;49.720;6.576;2023-03-26T06:37:53;98414.75;;;9.61;83.59
17615;BME280;8926;49.720;6.576;2023-03-26T06:40:19;98409.78;;;9.58;81.86
17615;BME280;8926;49.720;6.576;2023-03-26T06:42:44;98412.09;;;9.49;82.24
17615;BME280;8926;49.720;6.576;2023-03-26T06:45:10;98413.50;;;9.42;81.63
17615;BME280;8926;49.720;6.576;2023-03-26T06:47:35;98414.44;;;9.41;82.39
17615;BME280;8926;49.720;6.576;2023-03-26T06:50:00;98414.44;;;9.41;81.44
17615;BME280;8926;49.720;6.576;2023-03-26T06:52:26;98404.69;;;9.32;80.99
17615;BME280;8926;49.720;6.576;2023-03-26T06:54:52;98400.91;;;9.36;81.08
17615;BME280;8926;49.720;6.576;2023-03-26T06:57:17;98402.56;;;9.37;81.15
17615;BME280;8926;49.720;6.576;2023-03-26T06:59:43;98409.69;;;9.35;81.65
17615;BME280;8926;49.720;6.576;2023-03-26T07:02:09;98404.47;;;9.35;81.20
17615;BME280;8926;49.720;6.576;2023-03-26T07:04:35;98401.16;;;9.33;81.16
17615;BME280;8926;49.720;6.576;2023-03-26T07:07:01;98398.03;;;9.28;81.14
17615;BME280;8926;49.720;6.576;2023-03-26T07:09:26;98396.38;;;9.27;82.74
17615;BME280;8926;49.720;6.576;2023-03-26T07:11:55;98394.50;;;9.29;82.28
17615;BME280;8926;49.720;6.576;2023-03-26T07:14:20;98382.41;;;9.28;83.00
17615;BME280;8926;49.720;6.576;2023-03-26T07:16:45;98380.53;;;9.30;82.35
17615;BME280;8926;49.720;6.576;2023-03-26T07:19:11;98381.69;;;9.26;81.98
17615;BME280;8926;49.720;6.576;2023-03-26T07:21:36;98384.75;;;9.20;82.11
17615;BME280;8926;49.720;6.576;2023-03-26T07:24:02;98376.41;;;9.15;82.27
17615;BME280;8926;49.720;6.576;2023-03-26T07:26:35;98378.53;;;9.10;82.67
17615;BME280;8926;49.720;6.576;2023-03-26T07:31:57;98363.56;;;9.25;82.40
17615;BME280;8926;49.720;6.576;2023-03-26T07:34:50;98347.63;;;9.40;82.58
17615;BME280;8926;49.720;6.576;2023-03-26T07:40:19;98335.59;;;9.73;83.67
17615;BME280;8926;49.720;6.576;2023-03-26T07:45:50;98319.56;;;10.67;83.05
17615;BME280;8926;49.720;6.576;2023-03-26T07:48:20;98314.66;;;10.84;79.85
17615;BME280;8926;49.720;6.576;2023-03-26T07:50:46;98316.09;;;10.77;79.61
17615;BME280;8926;49.720;6.576;2023-03-26T07:53:13;98317.22;;;10.64;80.24
17615;BME280;8926;49.720;6.576;2023-03-26T07:55:52;98321.91;;;10.38;80.92
17615;BME280;8926;49.720;6.576;2023-03-26T07:58:35;98312.88;;;10.19;81.57
17615;BME280;8926;49.720;6.576;2023-03-26T08:06:58;98307.66;;;9.97;83.07
17615;BME280;8926;49.720;6.576;2023-03-26T08:09:37;98303.25;;;9.98;83.61
17615;BME280;8926;49.720;6.576;2023-03-26T08:12:09;98302.66;;;9.94;84.61
17615;BME280;8926;49.720;6.576;2023-03-26T08:17:14;98295.06;;;10.02;84.21
17615;BME280;8926;49.720;6.576;2023-03-26T08:19:47;98297.31;;;10.18;83.48
17615;BME280;8926;49.720;6.576;2023-03-26T08:27:43;98297.66;;;10.58;83.50
17615;BME280;8926;49.720;6.576;2023-03-26T08:30:19;98280.56;;;10.54;83.24
17615;BME280;8926;49.720;6.576;2023-03-26T08:32:53;98286.97;;;10.61;83.26
17615;BME280;8926;49.720;6.576;2023-03-26T08:35:20;98270.53;;;10.70;83.97
17615;BME280;8926;49.720;6.576;2023-03-26T08:37:45;98271.44;;;10.80;83.45
17615;BME280;8926;49.720;6.576;2023-03-26T08:40:11;98271.91;;;10.85;84.38
17615;BME280;8926;49.720;6.576;2023-03-26T09:11:20;98304.31;;;10.40;85.80
17615;BME280;8926;49.720;6.576;2023-03-26T09:21:49;98312.06;;;10.19;82.61
17615;BME280;8926;49.720;6.576;2023-03-26T09:24:42;98303.72;;;10.14;82.77
17615;BME280;8926;49.720;6.576;2023-03-26T09:38:42;98312.25;;;10.61;83.58
17615;BME280;8926;49.720;6.576;2023-03-26T09:41:15;98303.69;;;11.64;81.47
17615;BME280;8926;49.720;6.576;2023-03-26T09:49:14;98300.75;;;12.49;76.20
17615;BME280;8926;49.720;6.576;2023-03-26T09:51:55;98303.78;;;12.44;74.82
17615;BME280;8926;49.720;6.576;2023-03-26T09:54:40;98305.94;;;12.30;73.88
17615;BME280;8926;49.720;6.576;2023-03-26T09:57:19;98299.91;;;12.39;73.57
17615;BME280;8926;49.720;6.576;2023-03-26T10:10:30;98309.41;;;12.00;73.17
17615;BME280;8926;49.720;6.576;2023-03-26T10:13:23;98308.66;;;11.88;74.17
17615;BME280;8926;49.720;6.576;2023-03-26T10:27:22;98303.22;;;12.41;71.15
17615;BME280;8926;49.720;6.576;2023-03-26T10:33:29;98322.09;;;12.04;70.49
17615;BME280;8926;49.720;6.576;2023-03-26T10:36:19;98308.94;;;12.15;70.54
17615;BME280;8926;49.720;6.576;2023-03-26T10:39:29;98310.31;;;12.19;69.37
17615;BME280;8926;49.720;6.576;2023-03-26T10:42:18;98307.78;;;12.08;70.03
17615;BME280;8926;49.720;6.576;2023-03-26T10:45:11;98312.59;;;12.03;69.69
17615;BME280;8926;49.720;6.576;2023-03-26T10:53:06;98307.03;;;11.97;69.84
17615;BME280;8926;49.720;6.576;2023-03-26T10:55:39;98313.72;;;12.10;69.30
17615;BME280;8926;49.720;6.576;2023-03-26T10:58:26;98329.88;;;12.15;69.12
17615;BME280;8926;49.720;6.576;2023-03-26T11:01:00;98324.63;;;12.15;67.32
17615;BME280;8926;49.720;6.576;2023-03-26T11:03:54;98323.25;;;12.11;69.54
17615;BME280;8926;49.720;6.576;2023-03-26T11:09:06;98311.09;;;12.10;68.82
17615;BME280;8926;49.720;6.576;2023-03-26T11:12:32;98314.44;;;12.12;69.08
17615;BME280;8926;49.720;6.576;2023-03-26T11:15:04;98315.38;;;12.61;68.76
17615;BME280;8926;49.720;6.576;2023-03-26T11:17:53;98307.25;;;12.74;68.85
17615;BME280;8926;49.720;6.576;2023-03-26T11:20:42;98320.91;;;12.77;68.88
17615;BME280;8926;49.720;6.576;2023-03-26T11:34:12;98290.88;;;13.01;66.90
17615;BME280;8926;49.720;6.576;2023-03-26T11:36:44;98306.31;;;12.84;66.96
17615;BME280;8926;49.720;6.576;2023-03-26T11:39:14;98314.59;;;12.70;67.46
17615;BME280;8926;49.720;6.576;2023-03-26T11:41:43;98312.88;;;12.50;66.97
17615;BME280;8926;49.720;6.576;2023-03-26T11:44:26;98318.25;;;12.39;69.82
17615;BME280;8926;49.720;6.576;2023-03-26T11:47:01;98334.28;;;12.24;70.83
17615;BME280;8926;49.720;6.576;2023-03-26T11:49:29;98323.13;;;12.22;71.54
17615;BME280;8926;49.720;6.576;2023-03-26T11:51:54;98336.50;;;12.19;72.17
17615;BME280;8926;49.720;6.576;2023-03-26T11:54:20;98329.88;;;12.25;72.41
17615;BME280;8926;49.720;6.576;2023-03-26T11:56:56;98321.94;;;12.96;72.49
17615;BME280;8926;49.720;6.576;2023-03-26T12:01:58;98312.28;;;12.96;71.36
17615;BME280;8926;49.720;6.576;2023-03-26T12:04:33;98306.63;;;13.49;69.74
17615;BME280;8926;49.720;6.576;2023-03-26T12:10:35;98284.22;;;13.54;68.91
17615;BME280;8926;49.720;6.576;2023-03-26T12:15:42;98292.72;;;13.19;67.44
17615;BME280;8926;49.720;6.576;2023-03-26T12:18:25;98291.19;;;13.17;69.70
17615;BME280;8926;49.720;6.576;2023-03-26T12:21:25;98289.50;;;13.25;68.58
17615;BME280;8926;49.720;6.576;2023-03-26T12:26:28;98305.78;;;13.29;65.15
17615;BME280;8926;49.720;6.576;2023-03-26T12:28:55;98312.66;;;13.01;65.43
17615;BME280;8926;49.720;6.576;2023-03-26T12:31:21;98306.34;;;12.94;66.87
17615;BME280;8926;49.720;6.576;2023-03-26T12:34:10;98310.63;;;12.95;67.60
17615;BME280;8926;49.720;6.576;2023-03-26T12:36:37;98307.88;;;12.97;66.28
17615;BME280;8926;49.720;6.576;2023-03-26T12:39:33;98294.44;;;12.61;65.11
17615;BME280;8926;49.720;6.576;2023-03-26T12:42:00;98303.09;;;12.52;65.88
17615;BME280;8926;49.720;6.576;2023-03-26T12:44:52;98295.81;;;12.65;65.78
17615;BME280;8926;49.720;6.576;2023-03-26T12:47:26;98298.63;;;12.93;65.44
17615;BME280;8926;49.720;6.576;2023-03-26T12:49:52;98288.97;;;13.22;64.91
17615;BME280;8926;49.720;6.576;2023-03-26T12:57:41;98285.16;;;13.73;63.16
17615;BME280;8926;49.720;6.576;2023-03-26T13:03:09;98277.06;;;13.47;63.79
17615;BME280;8926;49.720;6.576;2023-03-26T13:13:59;98278.47;;;13.41;62.74
17615;BME280;8926;49.720;6.576;2023-03-26T13:19:17;98260.78;;;13.43;62.87
17615;BME280;8926;49.720;6.576;2023-03-26T13:27:20;98239.38;;;13.85;60.33
17615;BME280;8926;49.720;6.576;2023-03-26T13:32:32;98229.75;;;13.76;59.07
17615;BME280;8926;49.720;6.576;2023-03-26T13:35:17;98227.03;;;13.68;58.58
17615;BME280;8926;49.720;6.576;2023-03-26T13:48:25;98273.47;;;12.80;63.38
17615;BME280;8926;49.720;6.576;2023-03-26T13:50:59;98270.47;;;12.85;64.52
17615;BME280;8926;49.720;6.576;2023-03-26T13:53:33;98272.38;;;12.73;67.72
17615;BME280;8926;49.720;6.576;2023-03-26T13:56:01;98274.28;;;12.52;68.45
17615;BME280;8926;49.720;6.576;2023-03-26T13:58:37;98277.44;;;12.36;69.30
17615;BME280;8926;49.720;6.576;2023-03-26T14:03:53;98285.25;;;12.27;70.03
17615;BME280;8926;49.720;6.576;2023-03-26T14:06:36;98282.63;;;12.27;71.02
17615;BME280;8926;49.720;6.576;2023-03-26T14:09:21;98278.22;;;12.17;69.14
17615;BME280;8926;49.720;6.576;2023-03-26T14:14:45;98263.19;;;12.19;67.93
17615;BME280;8926;49.720;6.576;2023-03-26T14:17:23;98273.38;;;12.22;67.16
17615;BME280;8926;49.720;6.576;2023-03-26T14:23:14;98320.22;;;12.16;68.51
17615;BME280;8926;49.720;6.576;2023-03-26T14:25:52;98320.41;;;11.94;68.45
17615;BME280;8926;49.720;6.576;2023-03-26T14:40:06;98341.44;;;10.98;71.56
17615;BME280;8926;49.720;6.576;2023-03-26T14:53:55;98338.31;;;10.83;72.13
17615;BME280;8926;49.720;6.576;2023-03-26T15:02:47;98338.59;;;11.01;72.52
17615;BME280;8926;49.720;6.576;2023-03-26T15:19:54;98348.81;;;10.93;72.55
17615;BME280;8926;49.720;6.576;2023-03-26T15:30:52;98358.13;;;10.85;74.57
17615;BME280;8926;49.720;6.576;2023-03-26T15:36:22;98357.84;;;11.00;73.89
17615;BME280;8926;49.720;6.576;2023-03-26T15:39:21;98361.28;;;11.00;73.41
17615;BME280;8926;49.720;6.576;2023-03-26T15:45:00;98344.81;;;10.88;73.95
17615;BME280;8926;49.720;6.576;2023-03-26T15:47:55;98343.16;;;10.87;73.91
17615;BME280;8926;49.720;6.576;2023-03-26T15:50:34;98353.13;;;10.82;74.40
17615;BME280;8926;49.720;6.576;2023-03-26T15:53:14;98352.19;;;10.83;74.53
17615;BME280;8926;49.720;6.576;2023-03-26T15:58:54;98351.13;;;10.75;75.06
17615;BME280;8926;49.720;6.576;2023-03-26T16:01:34;98350.06;;;10.77;76.21
17615;BME280;8926;49.720;6.576;2023-03-26T16:07:33;98343.53;;;10.83;75.83
17615;BME280;8926;49.720;6.576;2023-03-26T16:10:24;98344.59;;;10.80;75.67
17615;BME280;8926;49.720;6.576;2023-03-26T16:13:19;98349.94;;;10.79;76.34
17615;BME280;8926;49.720;6.576;2023-03-26T16:15:38;98361.22;;;10.68;75.39
17615;BME280;8926;49.720;6.576;2023-03-26T16:20:44;98357.34;;;10.63;75.83
17615;BME280;8926;49.720;6.576;2023-03-26T16:26:21;98363.41;;;10.63;75.07
17615;BME280;8926;49.720;6.576;2023-03-26T16:33:48;98378.34;;;10.50;73.67
17615;BME280;8926;49.720;6.576;2023-03-26T16:36:24;98373.59;;;10.44;73.84
17615;BME280;8926;49.720;6.576;2023-03-26T16:57:27;98399.47;;;10.25;75.12
17615;BME280;8926;49.720;6.576;2023-03-26T17:00:28;98399.91;;;10.18;75.88
17615;BME280;8926;49.720;6.576;2023-03-26T17:11:03;98414.41;;;10.11;77.70
17615;BME280;8926;49.720;6.576;2023-03-26T17:13:46;98414.13;;;10.14;77.40
17615;BME280;8926;49.720;6.576;2023-03-26T17:16:43;98423.19;;;10.10;78.00
17615;BME280;8926;49.720;6.576;2023-03-26T17:19:32;98431.00;;;10.10;78.15
17615;BME280;8926;49.720;6.576;2023-03-26T17:22:07;98435.97;;;10.02;78.09
17615;BME280;8926;49.720;6.576;2023-03-26T17:24:55;98428.81;;;9.93;78.65
17615;BME280;8926;49.720;6.576;2023-03-26T17:35:43;98465.94;;;9.85;79.86
17615;BME280;8926;49.720;6.576;2023-03-26T17:40:55;98466.59;;;9.76;81.84
17615;BME280;8926;49.720;6.576;2023-03-26T17:43:32;98461.16;;;9.79;80.77
17615;BME280;8926;49.720;6.576;2023-03-26T17:46:00;98472.66;;;9.77;80.31
17615;BME280;8926;49.720;6.576;2023-03-26T17:48:29;98475.38;;;9.75;80.56
17615;BME280;8926;49.720;6.576;2023-03-26T17:51:13;98479.97;;;9.72;80.24
17615;BME280;8926;49.720;6.576;2023-03-26T17:53:42;98478.53;;;9.68;80.48
17615;BME280;8926;49.720;6.576;2023-03-26T17:56:17;98484.81;;;9.65;79.92
17615;BME280;8926;49.720;6.576;2023-03-26T17:58:46;98486.69;;;9.63;79.80
17615;BME280;8926;49.720;6.576;2023-03-26T18:01:25;98493.19;;;9.58;79.76
17615;BME280;8926;49.720;6.576;2023-03-26T18:03:57;98493.03;;;9.48;80.18
17615;BME280;8926;49.720;6.576;2023-03-26T18:10:08;98502.22;;;9.41;80.57
17615;BME280;8926;49.720;6.576;2023-03-26T18:12:55;98512.13;;;9.36;81.43
17615;BME280;8926;49.720;6.576;2023-03-26T18:18:20;98513.69;;;9.38;81.06
17615;BME280;8926;49.720;6.576;2023-03-26T18:20:48;98520.56;;;9.39;81.26
17615;BME280;8926;49.720;6.576;2023-03-26T18:23:24;98519.53;;;9.42;81.40
17615;BME280;8926;49.720;6.576;2023-03-26T18:26:14;98529.63;;;9.46;81.35
17615;BME280;8926;49.720;6.576;2023-03-26T18:28:42;98534.13;;;9.44;81.65
17615;BME280;8926;49.720;6.576;2023-03-26T18:31:16;98531.72;;;9.41;81.74
17615;BME280;8926;49.720;6.576;2023-03-26T18:33:45;98534.34;;;9.41;80.84
17615;BME280;8926;49.720;6.576;2023-03-26T18:36:10;98534.78;;;9.35;81.22
17615;BME280;8926;49.720;6.576;2023-03-26T18:38:36;98552.31;;;9.33;81.33
17615;BME280;8926;49.720;6.576;2023-03-26T18:41:02;98548.25;;;9.29;82.16
17615;BME280;8926;49.720;6.576;2023-03-26T18:43:28;98549.19;;;9.28;82.24